Time;durP1;ratioP1;P1;durP2;ratioP2;P2;SDS_P1;SDS_P2;PMS_P1;PMS_P2;Temp;Humidity;BMP_temperature;BMP_pressure;BME280_temperature;BME280_humidity;BME280_pressure;Samples;Min_cycle;Max_cycle;Signal;HPM_P1;HPM_P2
2022/08/29 00:01:00;;;;;;;1.67;0.52;;;22.30;64.40;;;;;;5053223;28;20028;-76
2022/08/29 00:03:26;;;;;;;2.08;0.40;;;22.30;64.40;;;;;;5053001;28;20396;-76
2022/08/29 00:05:52;;;;;;;1.48;0.40;;;22.30;64.40;;;;;;5052959;28;20021;-76
2022/08/29 00:08:18;;;;;;;2.10;0.40;;;22.30;64.40;;;;;;5053279;28;20384;-76
2022/08/29 00:10:43;;;;;;;2.63;0.40;;;22.30;64.40;;;;;;5053294;28;20031;-76
2022/08/29 00:13:10;;;;;;;3.17;0.52;;;22.30;64.40;;;;;;5052996;28;20399;-76
2022/08/29 00:15:36;;;;;;;0.85;0.30;;;22.30;64.40;;;;;;5053225;28;20070;-76
2022/08/29 00:18:02;;;;;;;0.98;0.30;;;22.30;64.40;;;;;;5052985;28;20423;-76
2022/08/29 00:20:31;;;;;;;1.05;0.40;;;22.30;64.60;;;;;;5053065;28;20028;-76
2022/08/29 00:22:57;;;;;;;2.33;0.50;;;22.20;64.60;;;;;;5052856;28;20032;-76
2022/08/29 00:25:24;;;;;;;1.65;0.32;;;22.30;64.70;;;;;;5052792;28;20045;-76
2022/08/29 00:27:50;;;;;;;2.40;0.50;;;22.20;64.80;;;;;;5052683;28;20033;-76
2022/08/29 00:30:17;;;;;;;2.55;0.60;;;22.20;64.60;;;;;;5052952;28;20427;-76
2022/08/29 00:32:43;;;;;;;2.55;0.50;;;22.10;64.80;;;;;;5052592;28;20112;-76
2022/08/29 00:35:14;;;;;;;1.10;0.30;;;22.10;64.90;;;;;;5052735;28;20049;-76
2022/08/29 00:37:41;;;;;;;3.30;0.30;;;22.10;64.90;;;;;;5056254;28;20089;-75
2022/08/29 00:40:10;;;;;;;1.65;0.63;;;22.10;64.90;;;;;;5056542;28;20029;-75
2022/08/29 00:42:36;;;;;;;1.38;0.40;;;22.10;65.00;;;;;;5056814;28;20094;-76
2022/08/29 00:45:08;;;;;;;1.38;0.30;;;22.10;65.00;;;;;;5056841;28;20049;-76
2022/08/29 00:47:39;;;;;;;0.98;0.38;;;22.10;65.10;;;;;;5056166;28;20041;-76
2022/08/29 00:50:07;;;;;;;2.03;0.32;;;22.10;65.10;;;;;;5056384;28;20032;-76
2022/08/29 00:52:43;;;;;;;1.33;0.40;;;22.10;65.10;;;;;;5056664;28;20091;-76
2022/08/29 00:55:20;;;;;;;1.63;0.38;;;22.00;65.10;;;;;;5056075;28;20016;-76
2022/08/29 00:57:51;;;;;;;1.38;0.30;;;22.00;65.10;;;;;;5056237;28;20469;-75
2022/08/29 01:00:18;;;;;;;2.47;0.50;;;22.00;65.20;;;;;;5056522;28;20384;-75
2022/08/29 01:02:44;;;;;;;2.10;0.47;;;22.00;65.10;;;;;;5056426;28;20035;-75
2022/08/29 01:05:12;;;;;;;1.50;0.70;;;22.00;65.10;;;;;;5056414;28;20029;-75
2022/08/29 01:07:38;;;;;;;1.05;0.30;;;22.00;65.20;;;;;;5056082;28;20064;-76
2022/08/29 01:10:05;;;;;;;1.13;0.47;;;22.00;65.00;;;;;;5055851;28;20477;-76
2022/08/29 01:12:32;;;;;;;1.50;0.30;;;22.00;65.00;;;;;;5055969;28;20112;-76
2022/08/29 01:15:02;;;;;;;1.00;0.40;;;21.90;65.00;;;;;;5055909;28;20542;-76
2022/08/29 01:17:35;;;;;;;1.25;0.30;;;21.90;65.20;;;;;;5056082;28;20029;-76
2022/08/29 01:20:32;;;;;;;1.25;0.32;;;21.90;65.30;;;;;;5055802;28;20415;-75
2022/08/29 01:23:11;;;;;;;1.60;0.50;;;21.80;65.40;;;;;;5055759;28;20075;-75
2022/08/29 01:25:43;;;;;;;1.35;0.60;;;21.80;65.40;;;;;;5055563;28;20506;-76
2022/08/29 01:28:26;;;;;;;3.75;0.60;;;21.70;65.20;;;;;;5055621;28;20503;-76
2022/08/29 01:31:08;;;;;;;0.95;0.30;;;21.70;65.60;;;;;;5055857;28;20025;-76
2022/08/29 01:33:56;;;;;;;1.23;0.47;;;21.70;65.60;;;;;;5055439;28;20527;-76
2022/08/29 01:36:44;;;;;;;0.57;0.30;;;21.70;65.60;;;;;;5055927;28;20025;-75
2022/08/29 01:39:10;;;;;;;1.08;0.30;;;21.70;65.70;;;;;;5055620;28;20409;-75
2022/08/29 01:41:35;;;;;;;1.95;0.40;;;21.70;65.80;;;;;;5055535;28;20025;-77
2022/08/29 01:44:09;;;;;;;1.65;0.50;;;21.70;65.90;;;;;;5055250;28;20480;-75
2022/08/29 01:46:34;;;;;;;1.40;0.30;;;21.70;65.90;;;;;;5055374;28;20518;-76
2022/08/29 01:49:02;;;;;;;1.95;0.30;;;21.70;66.00;;;;;;5054086;28;20033;-75
2022/08/29 01:51:28;;;;;;;1.25;0.40;;;21.60;66.00;;;;;;5055138;28;20029;-75
2022/08/29 01:53:54;;;;;;;1.10;0.40;;;21.60;66.00;;;;;;5055240;28;20077;-76
2022/08/29 01:56:24;;;;;;;2.10;0.40;;;21.60;66.10;;;;;;5055163;28;20043;-76
2022/08/29 01:58:51;;;;;;;1.50;0.40;;;21.60;66.20;;;;;;5055402;28;20028;-75
2022/08/29 02:01:21;;;;;;;3.92;0.40;;;21.50;66.10;;;;;;5055385;28;20025;-75
2022/08/29 02:03:47;;;;;;;1.48;0.38;;;21.40;66.00;;;;;;5055462;28;20064;-76
2022/08/29 02:06:13;;;;;;;1.25;0.50;;;21.40;66.30;;;;;;5054548;28;20358;-76
2022/08/29 02:08:40;;;;;;;0.85;0.30;;;21.30;66.60;;;;;;5055096;28;20036;-76
2022/08/29 02:11:09;;;;;;;1.77;0.50;;;21.30;66.60;;;;;;5054847;28;20415;-75
2022/08/29 02:13:40;;;;;;;2.05;0.30;;;21.40;66.70;;;;;;5055151;28;20021;-76
2022/08/29 02:16:06;;;;;;;1.55;0.40;;;21.40;66.60;;;;;;5055082;28;20029;-76
2022/08/29 02:18:32;;;;;;;1.13;0.38;;;21.40;66.60;;;;;;5055093;28;20025;-75
2022/08/29 02:20:59;;;;;;;2.35;0.40;;;21.40;66.60;;;;;;5054731;28;20476;-76
2022/08/29 02:23:25;;;;;;;1.23;0.50;;;21.40;66.50;;;;;;5054716;28;20025;-76
2022/08/29 02:25:52;;;;;;;1.35;0.50;;;21.40;66.40;;;;;;5054392;28;20458;-75
2022/08/29 02:28:18;;;;;;;1.95;0.40;;;21.40;66.50;;;;;;5054563;28;20377;-75
2022/08/29 02:30:47;;;;;;;1.95;0.73;;;21.30;66.10;;;;;;5054815;28;20047;-75
2022/08/29 02:33:14;;;;;;;2.13;0.55;;;21.20;66.20;;;;;;5054436;28;20029;-76
2022/08/29 02:35:40;;;;;;;2.42;0.57;;;21.20;66.70;;;;;;5054100;28;20534;-76
2022/08/29 02:38:06;;;;;;;1.58;0.60;;;21.10;66.70;;;;;;5054342;28;20029;-76
2022/08/29 02:40:33;;;;;;;1.67;0.65;;;21.00;66.30;;;;;;5054601;28;20017;-76
2022/08/29 02:42:59;;;;;;;1.40;0.50;;;21.00;66.60;;;;;;5054591;28;20035;-76
2022/08/29 02:45:25;;;;;;;2.53;0.55;;;21.00;66.90;;;;;;5054168;28;20025;-76
2022/08/29 02:47:51;;;;;;;1.70;0.82;;;21.00;66.80;;;;;;5054167;28;20040;-75
2022/08/29 02:50:17;;;;;;;2.00;0.60;;;20.90;66.90;;;;;;5054458;28;20025;-76
2022/08/29 02:52:43;;;;;;;1.55;0.40;;;20.90;67.00;;;;;;5054260;28;20078;-76
2022/08/29 02:55:14;;;;;;;2.03;0.40;;;20.90;67.10;;;;;;5053848;28;20021;-76
2022/08/29 02:57:40;;;;;;;1.70;0.80;;;20.90;67.00;;;;;;5053964;28;20024;-76
2022/08/29 03:00:11;;;;;;;2.22;0.93;;;21.00;66.80;;;;;;5054021;28;20037;-76
2022/08/29 03:02:38;;;;;;;1.73;0.80;;;20.90;66.70;;;;;;5053948;28;20538;-76
2022/08/29 03:05:04;;;;;;;1.08;0.60;;;20.90;66.90;;;;;;5053892;28;20031;-76
2022/08/29 03:07:30;;;;;;;2.78;0.75;;;20.90;67.70;;;;;;5053444;28;20120;-76
2022/08/29 03:09:56;;;;;;;1.40;0.70;;;21.00;67.10;;;;;;5053753;28;20067;-75
2022/08/29 03:12:22;;;;;;;1.83;0.70;;;21.00;67.00;;;;;;5053644;28;20033;-76
2022/08/29 03:14:48;;;;;;;2.42;0.73;;;21.10;67.00;;;;;;5054012;28;20075;-75
2022/08/29 03:17:13;;;;;;;2.10;0.90;;;21.10;67.00;;;;;;5053657;28;20029;-76
2022/08/29 03:19:39;;;;;;;1.88;1.08;;;21.10;66.60;;;;;;5053803;28;20414;-75
2022/08/29 03:22:04;;;;;;;1.98;0.82;;;21.10;66.60;;;;;;5053541;28;20025;-76
2022/08/29 03:24:30;;;;;;;1.90;0.80;;;21.10;66.60;;;;;;5053366;28;20049;-76
2022/08/29 03:26:56;;;;;;;1.75;0.80;;;21.10;66.60;;;;;;5053190;28;20029;-76
2022/08/29 03:29:21;;;;;;;1.83;0.95;;;21.20;66.70;;;;;;5053603;28;20029;-76
2022/08/29 03:31:47;;;;;;;2.78;0.88;;;21.10;66.60;;;;;;5053411;28;20086;-76
2022/08/29 03:34:13;;;;;;;2.22;1.00;;;21.10;66.50;;;;;;5053088;28;20029;-76
2022/08/29 03:36:40;;;;;;;2.33;1.20;;;21.10;66.10;;;;;;5053550;28;20021;-76
2022/08/29 03:39:05;;;;;;;2.20;0.82;;;21.10;66.50;;;;;;5053617;28;20028;-76
2022/08/29 03:41:31;;;;;;;2.63;1.27;;;21.00;66.10;;;;;;5053630;28;20021;-75
2022/08/29 03:44:00;;;;;;;1.83;0.98;;;21.00;66.40;;;;;;5053103;28;20527;-76
2022/08/29 03:46:26;;;;;;;1.75;0.95;;;21.00;66.60;;;;;;5053192;28;20026;-76
2022/08/29 03:48:52;;;;;;;3.55;1.08;;;20.90;66.30;;;;;;5053099;28;20495;-76
2022/08/29 03:51:19;;;;;;;2.65;1.08;;;21.00;66.80;;;;;;5053199;28;20017;-76
2022/08/29 03:53:45;;;;;;;2.70;1.02;;;21.00;66.70;;;;;;5053326;28;20049;-76
2022/08/29 03:56:11;;;;;;;3.00;1.65;;;21.00;66.60;;;;;;5053087;28;20053;-75
2022/08/29 03:58:38;;;;;;;2.10;1.05;;;21.00;65.80;;;;;;5053377;28;20037;-75
2022/08/29 04:01:05;;;;;;;2.85;1.00;;;21.00;66.20;;;;;;5053051;28;20025;-76
2022/08/29 04:03:31;;;;;;;3.35;1.90;;;21.00;66.30;;;;;;5052680;28;20460;-76
2022/08/29 04:05:57;;;;;;;2.60;1.67;;;21.00;65.50;;;;;;5053267;28;20056;-76
2022/08/29 04:08:22;;;;;;;3.10;1.42;;;20.90;65.70;;;;;;5052986;28;20480;-76
2022/08/29 04:10:48;;;;;;;2.70;1.25;;;20.80;66.00;;;;;;5053782;28;20028;-76
2022/08/29 04:13:14;;;;;;;3.28;1.58;;;20.80;65.80;;;;;;5057456;28;20460;-76
2022/08/29 04:15:41;;;;;;;2.67;1.70;;;20.70;65.60;;;;;;5056940;28;20049;-76
2022/08/29 04:18:09;;;;;;;4.10;1.88;;;20.60;65.10;;;;;;5057044;28;20025;-76
2022/08/29 04:20:43;;;;;;;1.88;1.17;;;20.50;65.60;;;;;;5057175;28;20025;-76
2022/08/29 04:23:13;;;;;;;4.15;1.83;;;20.50;66.10;;;;;;5057325;28;20380;-76
2022/08/29 04:25:39;;;;;;;4.35;2.03;;;20.50;65.90;;;;;;5056442;28;20052;-75
2022/08/29 04:28:07;;;;;;;3.28;1.60;;;20.30;64.70;;;;;;5056863;28;20032;-76
2022/08/29 04:30:34;;;;;;;4.20;1.67;;;20.10;66.20;;;;;;5056982;28;20097;-76
2022/08/29 04:33:00;;;;;;;3.38;1.60;;;20.20;67.10;;;;;;5056762;28;20058;-75
2022/08/29 04:35:26;;;;;;;3.63;1.42;;;20.30;67.30;;;;;;5056433;28;20065;-75
2022/08/29 04:37:51;;;;;;;2.20;1.23;;;20.30;66.70;;;;;;5056897;28;20028;-76
2022/08/29 04:40:19;;;;;;;2.58;1.25;;;20.30;67.00;;;;;;5056704;28;20051;-75
2022/08/29 04:42:46;;;;;;;2.75;1.08;;;20.30;67.30;;;;;;5056535;28;20461;-75
2022/08/29 04:45:14;;;;;;;3.10;1.88;;;20.40;67.30;;;;;;5056201;28;20412;-75
2022/08/29 04:47:41;;;;;;;3.75;1.88;;;20.40;65.90;;;;;;5056367;28;20048;-75
2022/08/29 04:50:08;;;;;;;3.25;2.03;;;20.20;65.90;;;;;;5056334;28;20028;-75
2022/08/29 04:52:35;;;;;;;4.20;2.15;;;20.00;65.50;;;;;;5056399;28;20025;-75
2022/08/29 04:55:01;;;;;;;4.38;1.50;;;19.90;65.80;;;;;;5056617;28;20036;-75
2022/08/29 04:57:27;;;;;;;2.60;1.50;;;19.80;67.20;;;;;;5056457;28;20139;-75
2022/08/29 04:59:57;;;;;;;3.00;1.45;;;20.00;67.70;;;;;;5056512;28;20472;-75
2022/08/29 05:02:24;;;;;;;5.00;1.90;;;20.10;67.50;;;;;;5056190;28;20032;-75
2022/08/29 05:04:51;;;;;;;3.88;2.17;;;20.10;67.20;;;;;;5056338;28;20029;-75
2022/08/29 05:07:21;;;;;;;4.95;1.60;;;20.10;66.60;;;;;;5056299;28;20449;-76
2022/08/29 05:09:48;;;;;;;3.40;1.60;;;20.00;66.70;;;;;;5056414;28;20032;-76
2022/08/29 05:12:14;;;;;;;2.85;1.63;;;20.00;66.80;;;;;;5055898;28;20021;-76
2022/08/29 05:14:40;;;;;;;3.45;1.73;;;20.00;66.50;;;;;;5056126;28;20582;-75
2022/08/29 05:17:05;;;;;;;3.08;1.67;;;20.00;67.20;;;;;;5055947;28;20025;-75
2022/08/29 05:19:31;;;;;;;7.38;2.40;;;20.00;67.20;;;;;;5055974;28;20104;-76
2022/08/29 05:21:57;;;;;;;5.75;1.80;;;20.00;66.60;;;;;;5055606;28;20142;-76
2022/08/29 05:24:24;;;;;;;4.45;2.00;;;20.00;67.10;;;;;;5055647;28;20041;-76
2022/08/29 05:26:50;;;;;;;4.22;1.50;;;20.00;66.50;;;;;;5055913;28;20044;-76
2022/08/29 05:29:16;;;;;;;4.07;2.08;;;20.00;67.10;;;;;;5055869;28;20086;-76
2022/08/29 05:31:42;;;;;;;2.95;1.80;;;20.00;66.80;;;;;;5055600;28;20019;-75
2022/08/29 05:34:10;;;;;;;3.33;1.70;;;20.10;67.30;;;;;;5055659;28;20021;-75
2022/08/29 05:36:35;;;;;;;2.40;1.48;;;20.10;67.00;;;;;;5055695;28;20017;-76
2022/08/29 05:39:02;;;;;;;3.28;1.70;;;20.30;67.30;;;;;;5055755;28;20025;-75
2022/08/29 05:41:28;;;;;;;4.30;2.35;;;20.30;67.10;;;;;;5055102;28;20033;-76
2022/08/29 05:43:55;;;;;;;2.88;1.50;;;20.40;65.70;;;;;;5055553;28;20044;-76
2022/08/29 05:46:20;;;;;;;2.70;1.50;;;20.40;67.50;;;;;;5055149;28;20496;-77
2022/08/29 05:48:46;;;;;;;3.80;1.42;;;20.80;67.20;;;;;;5054855;28;20029;-81
2022/08/29 05:51:17;;;;;;;2.63;1.58;;;21.10;65.70;;;;;;5054936;28;20036;-82
2022/08/29 05:53:44;;;;;;;4.20;2.05;;;21.40;64.70;;;;;;5055472;28;20099;-79
2022/08/29 05:56:10;;;;;;;4.35;2.50;;;21.50;64.00;;;;;;5055069;28;20024;-81
2022/08/29 05:58:35;;;;;;;4.35;2.35;;;21.60;63.70;;;;;;5053697;28;20033;-82
2022/08/29 06:01:01;;;;;;;6.38;2.95;;;21.70;63.10;;;;;;5054078;28;20108;-78
2022/08/29 06:03:27;;;;;;;5.10;2.80;;;21.60;62.40;;;;;;5053079;28;20025;-83
2022/08/29 06:05:52;;;;;;;4.47;1.95;;;21.60;62.50;;;;;;5054121;28;20098;-80
2022/08/29 06:08:19;;;;;;;3.83;2.28;;;21.60;62.40;;;;;;5053349;28;20109;-84
2022/08/29 06:10:45;;;;;;;4.40;2.53;;;21.70;62.20;;;;;;5053238;28;20028;-86
2022/08/29 06:13:13;;;;;;;6.07;2.53;;;21.70;62.00;;;;;;5054035;28;20048;-86
2022/08/29 06:15:43;;;;;;;5.05;1.90;;;21.70;62.00;;;;;;5055224;28;20025;-86
2022/08/29 06:18:09;;;;;;;4.95;2.17;;;21.80;61.90;;;;;;5054147;28;20499;-87
2022/08/29 06:20:37;;;;;;;7.00;2.50;;;21.70;61.90;;;;;;5053732;28;20033;-88
2022/08/29 06:23:03;;;;;;;5.82;2.08;;;21.80;61.90;;;;;;5053339;28;20381;-87
2022/08/29 06:25:29;;;;;;;3.40;2.35;;;21.80;61.80;;;;;;5053051;28;20052;-83
2022/08/29 06:27:54;;;;;;;4.63;1.98;;;21.80;61.90;;;;;;5053100;28;20033;-85
2022/08/29 06:30:20;;;;;;;3.55;2.20;;;21.70;61.90;;;;;;5053394;28;20671;-86
2022/08/29 06:32:45;;;;;;;4.07;1.90;;;21.70;62.00;;;;;;5053159;28;20021;-86
2022/08/29 06:35:11;;;;;;;3.53;1.77;;;21.70;62.10;;;;;;5052474;28;20115;-86
2022/08/29 06:37:37;;;;;;;3.28;1.52;;;21.80;62.00;;;;;;5053866;28;20021;-86
2022/08/29 06:40:03;;;;;;;6.55;2.35;;;22.00;61.90;;;;;;5053500;28;20033;-87
2022/08/29 06:42:29;;;;;;;6.32;2.42;;;22.10;61.70;;;;;;5054675;28;20021;-85
2022/08/29 06:44:54;;;;;;;3.22;1.70;;;22.10;61.50;;;;;;5074579;28;20035;-88
2022/08/29 06:47:20;;;;;;;3.30;1.90;;;22.10;61.40;;;;;;5056381;28;20036;-83
2022/08/29 06:49:45;;;;;;;5.57;2.13;;;22.10;61.40;;;;;;5053342;28;20349;-82
2022/08/29 06:52:12;;;;;;;3.42;2.00;;;22.20;61.40;;;;;;5052212;28;20036;-78
2022/08/29 06:54:37;;;;;;;3.75;1.90;;;22.20;61.30;;;;;;5052845;28;20056;-79
2022/08/29 06:57:03;;;;;;;5.20;2.20;;;22.30;61.10;;;;;;5051912;28;20036;-81
2022/08/29 06:59:29;;;;;;;5.55;1.70;;;22.40;60.90;;;;;;5052307;28;20040;-82
2022/08/29 07:01:54;;;;;;;3.30;1.98;;;22.40;60.90;;;;;;5052541;28;20478;-82
2022/08/29 07:04:20;;;;;;;4.25;1.88;;;22.40;60.80;;;;;;5051822;28;20032;-82
2022/08/29 07:06:46;;;;;;;3.40;1.73;;;22.50;60.80;;;;;;5051951;28;20155;-83
2022/08/29 07:09:12;;;;;;;3.55;1.70;;;22.40;60.70;;;;;;5051106;28;20523;-82
2022/08/29 07:11:40;;;;;;;3.63;1.80;;;22.40;60.60;;;;;;5053054;28;20021;-82
2022/08/29 07:14:06;;;;;;;4.25;1.70;;;22.40;60.70;;;;;;5052490;28;20029;-82
2022/08/29 07:16:34;;;;;;;4.88;1.98;;;22.40;60.70;;;;;;5052370;28;20032;-82
2022/08/29 07:19:03;;;;;;;4.75;1.83;;;22.40;60.70;;;;;;5051263;28;20086;-80
2022/08/29 07:21:29;;;;;;;3.90;1.70;;;22.50;60.70;;;;;;5047175;28;20033;-81
2022/08/29 07:23:57;;;;;;;3.83;1.63;;;22.50;60.50;;;;;;5051059;28;20025;-77
2022/08/29 07:26:27;;;;;;;4.18;1.77;;;22.50;60.60;;;;;;5051096;28;20485;-80
2022/08/29 07:28:56;;;;;;;5.03;2.00;;;22.50;60.50;;;;;;5049163;28;20353;-77
2022/08/29 07:31:22;;;;;;;4.75;1.95;;;22.40;60.50;;;;;;5050610;28;20135;-79
2022/08/29 07:33:47;;;;;;;6.93;1.90;;;22.30;60.80;;;;;;5051402;28;20116;-79
2022/08/29 07:36:13;;;;;;;6.53;1.90;;;22.30;61.10;;;;;;5051241;28;20510;-80
2022/08/29 07:38:39;;;;;;;4.45;2.13;;;22.20;61.40;;;;;;5047546;28;20025;-80
2022/08/29 07:41:07;;;;;;;5.10;1.98;;;22.20;61.60;;;;;;5051815;28;20353;-82
2022/08/29 07:43:34;;;;;;;3.75;1.90;;;22.10;61.80;;;;;;5049391;28;20511;-82
2022/08/29 07:46:08;;;;;;;8.45;2.10;;;22.00;62.20;;;;;;5050343;28;20476;-81
2022/08/29 07:48:34;;;;;;;4.47;1.85;;;22.00;62.20;;;;;;5050069;28;20021;-81
2022/08/29 07:51:00;;;;;;;3.63;1.83;;;22.10;62.20;;;;;;5050619;28;20043;-81
2022/08/29 07:53:26;;;;;;;4.38;1.95;;;22.20;62.00;;;;;;5051438;28;20476;-80
2022/08/29 07:55:51;;;;;;;4.50;1.88;;;22.20;61.90;;;;;;5051485;28;20037;-81
2022/08/29 07:58:17;;;;;;;6.13;2.00;;;22.20;62.00;;;;;;5052028;28;20029;-81
2022/08/29 08:00:42;;;;;;;4.93;1.90;;;22.20;62.10;;;;;;5050821;28;20127;-76
2022/08/29 08:03:09;;;;;;;3.30;1.42;;;22.10;62.40;;;;;;5050912;28;20043;-76
2022/08/29 08:05:36;;;;;;;4.95;1.80;;;22.00;62.60;;;;;;5050036;28;20054;-80
2022/08/29 08:08:02;;;;;;;3.67;1.60;;;22.00;63.40;;;;;;5050686;28;20041;-79
2022/08/29 08:10:28;;;;;;;5.53;1.95;;;21.80;63.30;;;;;;5050728;28;20070;-79
2022/08/29 08:12:53;;;;;;;2.80;1.30;;;21.80;63.70;;;;;;5050090;28;20074;-79
2022/08/29 08:15:20;;;;;;;4.88;1.40;;;21.70;63.90;;;;;;5052503;28;20025;-79
2022/08/29 08:17:46;;;;;;;2.72;1.70;;;21.80;64.30;;;;;;5051165;28;20033;-79
2022/08/29 08:20:12;;;;;;;4.03;1.60;;;21.90;63.90;;;;;;5051311;28;20017;-79
2022/08/29 08:22:38;;;;;;;4.90;1.92;;;22.00;63.60;;;;;;5051301;28;20147;-79
2022/08/29 08:25:04;;;;;;;4.28;1.55;;;22.10;63.80;;;;;;5051259;28;20163;-79
2022/08/29 08:27:30;;;;;;;3.30;1.70;;;22.10;63.50;;;;;;5051274;28;20110;-79
2022/08/29 08:29:56;;;;;;;4.47;1.63;;;22.30;63.40;;;;;;5051351;28;20069;-79
2022/08/29 08:32:22;;;;;;;4.38;1.77;;;22.40;63.40;;;;;;5049649;28;20052;-77
2022/08/29 08:34:47;;;;;;;3.88;1.80;;;22.30;63.80;;;;;;5049054;28;20021;-77
2022/08/29 08:37:13;;;;;;;3.88;1.63;;;22.30;63.40;;;;;;5049592;28;20060;-77
2022/08/29 08:39:40;;;;;;;4.55;1.60;;;22.30;63.30;;;;;;5051284;28;20029;-78
2022/08/29 08:42:41;;;;;;;3.67;1.67;;;22.40;63.00;;;;;;5051228;28;20021;-78
2022/08/29 08:45:09;;;;;;;5.22;1.30;;;22.40;62.90;;;;;;5045250;28;20071;-78
2022/08/29 08:47:40;;;;;;;3.97;1.40;;;22.40;62.10;;;;;;5050549;28;20056;-79
2022/08/29 08:50:24;;;;;;;3.60;1.58;;;22.30;62.20;;;;;;5049426;28;20453;-83
2022/08/29 08:52:58;;;;;;;4.88;1.38;;;22.30;62.00;;;;;;5050143;28;20036;-80
2022/08/29 08:55:46;;;;;;;6.38;1.40;;;22.40;63.10;;;;;;5049645;28;20032;-81
2022/08/29 08:58:22;;;;;;;3.72;1.50;;;22.40;62.20;;;;;;5052546;28;20044;-83
2022/08/29 09:01:14;;;;;;;6.57;1.73;;;22.40;62.30;;;;;;5052934;28;20182;-89
2022/08/29 09:04:01;;;;;;;3.72;1.33;;;22.30;61.50;;;;;;5049331;28;20400;-89
2022/08/29 09:06:52;;;;;;;4.85;1.45;;;22.20;62.30;;;;;;5054837;28;20045;-86
2022/08/29 09:09:48;;;;;;;2.42;1.48;;;22.30;62.60;;;;;;5050744;28;20025;-85
2022/08/29 09:12:37;;;;;;;3.75;1.77;;;22.20;62.50;;;;;;5052361;28;20035;-89
2022/08/29 09:15:11;;;;;;;3.35;1.60;;;22.20;62.80;;;;;;5053070;28;20083;-86
2022/08/29 09:17:45;;;;;;;4.97;1.60;;;22.30;62.20;;;;;;5054956;28;20029;-86
2022/08/29 09:20:21;;;;;;;3.67;1.75;;;22.40;61.60;;;;;;5054607;28;20021;-89
2022/08/29 09:23:21;;;;;;;3.35;1.50;;;22.40;61.70;;;;;;5054407;28;20131;-86
2022/08/29 09:25:47;;;;;;;3.40;1.50;;;22.40;61.80;;;;;;5046136;28;20048;-90
2022/08/29 09:28:13;;;;;;;3.22;1.40;;;22.40;62.20;;;;;;5055592;28;20040;-90
2022/08/29 09:30:42;;;;;;;4.80;1.63;;;22.40;62.30;;;;;;5055395;28;20025;-90
2022/08/29 09:33:10;;;;;;;3.35;1.60;;;22.50;62.10;;;;;;5057323;28;20528;-90
2022/08/29 09:35:39;;;;;;;7.88;1.80;;;22.60;62.30;;;;;;5055395;28;20465;-92
2022/08/29 09:38:16;;;;;;;3.88;1.40;;;22.70;62.10;;;;;;5054441;28;20041;-86
2022/08/29 09:41:00;;;;;;;3.72;1.40;;;22.70;62.30;;;;;;5054321;28;20104;-88
2022/08/29 09:43:38;;;;;;;2.92;1.25;;;22.70;62.20;;;;;;5053944;28;20145;-87
2022/08/29 09:46:10;;;;;;;2.72;1.35;;;22.70;62.40;;;;;;5054313;28;20032;-90
2022/08/29 09:48:38;;;;;;;3.55;1.08;;;22.80;62.40;;;;;;5054344;28;20029;-87
2022/08/29 09:51:20;;;;;;;5.13;1.60;;;22.80;62.50;;;;;;5052434;28;20110;-79
2022/08/29 09:53:46;;;;;;;3.00;1.20;;;22.70;62.90;;;;;;5053237;28;20384;-79
2022/08/29 09:56:25;;;;;;;3.85;1.10;;;22.70;63.10;;;;;;5053758;28;20025;-79
2022/08/29 09:59:01;;;;;;;2.55;1.17;;;22.70;63.10;;;;;;5053025;28;20029;-80
2022/08/29 10:01:28;;;;;;;3.75;1.20;;;22.80;63.20;;;;;;5051670;28;20384;-79
2022/08/29 10:04:05;;;;;;;4.05;1.23;;;22.80;63.20;;;;;;5053146;28;20032;-80
2022/08/29 10:06:38;;;;;;;3.92;1.55;;;22.80;63.10;;;;;;5051303;28;20041;-77
2022/08/29 10:09:26;;;;;;;2.33;1.00;;;22.80;62.70;;;;;;5052119;28;20040;-78
2022/08/29 10:11:59;;;;;;;3.47;1.27;;;22.70;63.10;;;;;;5053367;28;20024;-78
2022/08/29 10:14:53;;;;;;;3.53;1.00;;;22.70;63.20;;;;;;5050100;28;20025;-78
2022/08/29 10:20:10;;;;;;;5.05;1.20;;;22.70;63.40;;;;;;5053525;28;20041;-88
2022/08/29 10:23:01;;;;;;;2.50;1.20;;;22.60;64.10;;;;;;5052973;28;20021;-82
2022/08/29 10:25:40;;;;;;;3.15;1.10;;;22.50;64.10;;;;;;5051759;28;20075;-89
2022/08/29 10:28:05;;;;;;;4.50;1.10;;;22.50;64.30;;;;;;5054048;28;20119;-85
2022/08/29 10:31:03;;;;;;;3.45;1.10;;;22.60;64.50;;;;;;5053353;28;20055;-80
2022/08/29 10:33:53;;;;;;;1.77;0.68;;;22.70;64.50;;;;;;5052853;28;20433;-81
2022/08/29 10:36:28;;;;;;;2.92;0.88;;;22.80;64.80;;;;;;5053173;28;20033;-82
2022/08/29 10:39:16;;;;;;;3.10;0.95;;;22.70;65.00;;;;;;5053465;28;20120;-79
2022/08/29 10:42:01;;;;;;;4.38;0.80;;;22.60;64.80;;;;;;5052657;28;20032;-80
2022/08/29 10:45:04;;;;;;;3.67;1.10;;;22.70;64.60;;;;;;5045076;28;20409;-79
2022/08/29 10:47:39;;;;;;;3.33;0.90;;;22.70;64.90;;;;;;5050077;28;20435;-79
2022/08/29 10:50:28;;;;;;;7.00;1.33;;;22.80;66.70;;;;;;5052751;28;20028;-80
2022/08/29 10:53:19;;;;;;;4.13;0.82;;;22.90;65.80;;;;;;5052938;28;20484;-80
2022/08/29 10:55:52;;;;;;;2.85;0.90;;;23.10;65.00;;;;;;5049706;28;20041;-80
2022/08/29 10:58:39;;;;;;;5.93;1.10;;;23.10;64.20;;;;;;5052910;28;20693;-79
2022/08/29 11:01:20;;;;;;;2.40;0.90;;;23.20;64.20;;;;;;5051085;28;20028;-79
2022/08/29 11:04:05;;;;;;;4.65;0.95;;;23.20;64.20;;;;;;5052481;28;20029;-79
2022/08/29 11:06:43;;;;;;;3.75;0.98;;;23.00;64.40;;;;;;5051968;28;20037;-80
2022/08/29 11:09:20;;;;;;;5.05;0.93;;;22.90;64.80;;;;;;5052007;28;20029;-78
2022/08/29 11:12:02;;;;;;;4.00;0.90;;;22.90;65.00;;;;;;5049375;28;20139;-76
2022/08/29 11:14:39;;;;;;;5.85;1.73;;;23.00;64.80;;;;;;5051714;28;20075;-79
2022/08/29 11:17:09;;;;;;;8.52;2.17;;;23.00;65.20;;;;;;5052004;28;20070;-83
2022/08/29 11:19:46;;;;;;;5.45;1.02;;;23.10;65.40;;;;;;5053528;28;20115;-79
2022/08/29 11:22:17;;;;;;;4.18;1.10;;;23.20;65.60;;;;;;5050654;28;20021;-80
2022/08/29 11:24:48;;;;;;;5.10;1.02;;;23.30;64.60;;;;;;5051375;28;20049;-81
2022/08/29 11:27:50;;;;;;;5.13;1.20;;;23.30;64.70;;;;;;5051642;28;20120;-80
2022/08/29 11:30:35;;;;;;;3.22;0.95;;;23.60;65.70;;;;;;5052095;28;20469;-82
2022/08/29 11:33:23;;;;;;;5.88;1.48;;;23.90;64.00;;;;;;5049908;28;20060;-81
2022/08/29 11:36:10;;;;;;;4.07;1.05;;;23.90;63.50;;;;;;5052264;28;20033;-81
2022/08/29 11:38:48;;;;;;;4.40;1.27;;;23.90;63.70;;;;;;5051935;28;20100;-81
2022/08/29 11:41:25;;;;;;;3.22;1.10;;;23.80;63.50;;;;;;5051020;28;20029;-82
2022/08/29 11:44:02;;;;;;;6.43;1.00;;;23.60;63.80;;;;;;5050445;28;20036;-88
2022/08/29 11:46:43;;;;;;;6.47;1.17;;;23.50;64.40;;;;;;5051774;28;20476;-84
2022/08/29 11:49:39;;;;;;;5.40;1.38;;;23.40;65.00;;;;;;5052334;28;20399;-85
2022/08/29 11:52:07;;;;;;;7.18;1.40;;;23.60;65.00;;;;;;5052088;28;20391;-88
2022/08/29 11:54:33;;;;;;;5.57;0.80;;;23.70;64.20;;;;;;5051685;28;20435;-87
2022/08/29 11:56:58;;;;;;;4.85;1.52;;;23.70;64.20;;;;;;5052059;28;20039;-88
2022/08/29 11:59:49;;;;;;;4.78;1.10;;;23.80;64.60;;;;;;5051903;28;20055;-84
2022/08/29 12:02:27;;;;;;;3.58;1.13;;;24.00;63.90;;;;;;5051458;28;20021;-83
2022/08/29 12:05:01;;;;;;;7.22;1.30;;;24.20;62.10;;;;;;5050804;28;20029;-85
2022/08/29 12:07:47;;;;;;;4.10;1.25;;;24.20;62.90;;;;;;5049731;28;20078;-83
2022/08/29 12:10:19;;;;;;;8.35;1.42;;;24.50;62.30;;;;;;5051828;28;20040;-84
2022/08/29 12:12:51;;;;;;;2.80;0.90;;;24.60;62.20;;;;;;5049764;28;20021;-83
2022/08/29 12:15:25;;;;;;;;;;;24.80;61.20;;;;;;5051710;28;20017;-81
2022/08/29 12:17:52;;;;;;;4.88;1.40;;;24.80;61.10;;;;;;5051343;28;19920;-82
2022/08/29 12:20:40;;;;;;;4.68;1.10;;;25.00;60.70;;;;;;5051801;28;20021;-81
2022/08/29 12:23:18;;;;;;;4.90;1.10;;;25.20;60.60;;;;;;5051324;28;20472;-81
2022/08/29 12:25:49;;;;;;;8.35;1.10;;;25.20;61.10;;;;;;5051320;28;20037;-84
2022/08/29 12:28:20;;;;;;;6.05;1.08;;;25.00;59.00;;;;;;5051961;28;20029;-83
2022/08/29 12:30:56;;;;;;;4.70;1.10;;;24.80;58.50;;;;;;5051855;28;20373;-82
2022/08/29 12:33:48;;;;;;;2.70;1.00;;;24.50;59.30;;;;;;5053651;28;20095;-82
2022/08/29 12:36:24;;;;;;;4.53;0.90;;;24.50;59.80;;;;;;5045192;28;20059;-87
2022/08/29 12:39:12;;;;;;;4.30;0.90;;;24.40;59.10;;;;;;5055586;28;20423;-89
2022/08/29 12:41:56;;;;;;;4.30;1.00;;;24.30;58.10;;;;;;5040394;28;20476;-85
2022/08/29 12:44:38;;;;;;;3.58;1.10;;;24.10;58.80;;;;;;5055787;28;20024;-85
2022/08/29 12:47:10;;;;;;;6.35;1.35;;;23.90;58.70;;;;;;5056132;28;20033;-90
2022/08/29 12:49:49;;;;;;;;;;;23.90;59.50;;;;;;5057345;28;20028;-85
2022/08/29 12:52:27;;;;;;;2.65;0.82;;;23.90;58.90;;;;;;5055455;28;20264;-86
2022/08/29 12:54:55;;;;;;;2.80;0.60;;;23.90;59.40;;;;;;5053777;28;20391;-86
2022/08/29 12:57:37;;;;;;;3.53;1.20;;;24.10;61.50;;;;;;5055162;28;20476;-86
2022/08/29 13:00:11;;;;;;;6.35;0.80;;;24.40;60.80;;;;;;5055029;28;20396;-88
2022/08/29 13:02:37;;;;;;;4.05;1.30;;;24.50;61.00;;;;;;5055278;28;20021;-85
2022/08/29 13:05:18;;;;;;;3.42;0.77;;;24.50;60.70;;;;;;5054957;28;20534;-86
2022/08/29 13:07:54;;;;;;;5.25;1.00;;;24.50;61.00;;;;;;5054059;28;20041;-81
2022/08/29 13:10:20;;;;;;;4.05;0.95;;;24.50;61.50;;;;;;5054910;28;20028;-80